sensor_id;sensor_type;location;lat;lon;timestamp;P1;durP1;ratioP1;P2;durP2;ratioP2
35877;SDS011;21982;49.804;24.072;2022-09-03T00:00:12;5.93;;;3.08;;
35877;SDS011;21982;49.804;24.072;2022-09-03T00:02:41;7.50;;;3.30;;
35877;SDS011;21982;49.804;24.072;2022-09-03T00:08:08;6.38;;;3.17;;
35877;SDS011;21982;49.804;24.072;2022-09-03T00:10:58;7.50;;;4.38;;
35877;SDS011;21982;49.804;24.072;2022-09-03T00:13:37;4.88;;;2.95;;
35877;SDS011;21982;49.804;24.072;2022-09-03T00:16:07;6.90;;;4.40;;
35877;SDS011;21982;49.804;24.072;2022-09-03T00:18:51;7.95;;;3.30;;
35877;SDS011;21982;49.804;24.072;2022-09-03T00:24:03;6.30;;;3.50;;
35877;SDS011;21982;49.804;24.072;2022-09-03T00:26:33;7.50;;;4.28;;
35877;SDS011;21982;49.804;24.072;2022-09-03T00:29:08;5.68;;;3.72;;
35877;SDS011;21982;49.804;24.072;2022-09-03T00:31:52;8.13;;;3.88;;
35877;SDS011;21982;49.804;24.072;2022-09-03T00:34:28;7.05;;;3.78;;
35877;SDS011;21982;49.804;24.072;2022-09-03T00:37:06;6.45;;;3.22;;
35877;SDS011;21982;49.804;24.072;2022-09-03T00:39:32;5.28;;;3.60;;
35877;SDS011;21982;49.804;24.072;2022-09-03T00:44:41;6.93;;;3.45;;
35877;SDS011;21982;49.804;24.072;2022-09-03T00:50:34;6.97;;;3.83;;
35877;SDS011;21982;49.804;24.072;2022-09-03T00:56:07;9.30;;;4.00;;
35877;SDS011;21982;49.804;24.072;2022-09-03T00:59:02;8.73;;;3.60;;
35877;SDS011;21982;49.804;24.072;2022-09-03T01:01:58;6.70;;;3.25;;
35877;SDS011;21982;49.804;24.072;2022-09-03T01:07:19;7.75;;;4.78;;
35877;SDS011;21982;49.804;24.072;2022-09-03T01:12:34;8.40;;;4.20;;
35877;SDS011;21982;49.804;24.072;2022-09-03T01:15:29;6.23;;;3.43;;
35877;SDS011;21982;49.804;24.072;2022-09-03T01:32:18;7.13;;;3.80;;
35877;SDS011;21982;49.804;24.072;2022-09-03T01:35:11;8.13;;;4.28;;
35877;SDS011;21982;49.804;24.072;2022-09-03T01:46:05;8.88;;;4.78;;
35877;SDS011;21982;49.804;24.072;2022-09-03T01:48:52;8.45;;;4.85;;
35877;SDS011;21982;49.804;24.072;2022-09-03T01:51:24;8.40;;;4.32;;
35877;SDS011;21982;49.804;24.072;2022-09-03T01:59:45;9.13;;;5.00;;
35877;SDS011;21982;49.804;24.072;2022-09-03T02:02:23;5.97;;;3.80;;
35877;SDS011;21982;49.804;24.072;2022-09-03T02:04:55;7.00;;;4.07;;
35877;SDS011;21982;49.804;24.072;2022-09-03T02:07:30;8.45;;;4.88;;
35877;SDS011;21982;49.804;24.072;2022-09-03T02:09:58;7.60;;;4.43;;
35877;SDS011;21982;49.804;24.072;2022-09-03T02:12:25;6.57;;;4.35;;
35877;SDS011;21982;49.804;24.072;2022-09-03T02:14:57;7.70;;;4.22;;
35877;SDS011;21982;49.804;24.072;2022-09-03T02:17:23;6.05;;;4.05;;
35877;SDS011;21982;49.804;24.072;2022-09-03T02:19:52;7.28;;;4.00;;
35877;SDS011;21982;49.804;24.072;2022-09-03T02:22:19;7.07;;;3.85;;
35877;SDS011;21982;49.804;24.072;2022-09-03T02:24:47;8.70;;;4.78;;
35877;SDS011;21982;49.804;24.072;2022-09-03T02:27:16;7.95;;;4.60;;
35877;SDS011;21982;49.804;24.072;2022-09-03T02:29:43;6.88;;;4.30;;
35877;SDS011;21982;49.804;24.072;2022-09-03T02:32:10;7.85;;;3.95;;
35877;SDS011;21982;49.804;24.072;2022-09-03T02:34:36;9.52;;;4.38;;
35877;SDS011;21982;49.804;24.072;2022-09-03T02:37:10;8.77;;;4.72;;
35877;SDS011;21982;49.804;24.072;2022-09-03T02:39:37;7.25;;;3.83;;
35877;SDS011;21982;49.804;24.072;2022-09-03T02:42:03;8.02;;;4.90;;
35877;SDS011;21982;49.804;24.072;2022-09-03T02:44:31;9.23;;;4.32;;
35877;SDS011;21982;49.804;24.072;2022-09-03T02:47:02;7.10;;;4.30;;
35877;SDS011;21982;49.804;24.072;2022-09-03T02:49:30;10.93;;;5.40;;
35877;SDS011;21982;49.804;24.072;2022-09-03T02:51:56;9.68;;;5.65;;
35877;SDS011;21982;49.804;24.072;2022-09-03T02:54:25;7.93;;;4.55;;
35877;SDS011;21982;49.804;24.072;2022-09-03T02:56:52;11.55;;;5.63;;
35877;SDS011;21982;49.804;24.072;2022-09-03T02:59:18;9.40;;;5.22;;
35877;SDS011;21982;49.804;24.072;2022-09-03T03:01:46;7.50;;;5.57;;
35877;SDS011;21982;49.804;24.072;2022-09-03T03:04:12;9.02;;;4.90;;
35877;SDS011;21982;49.804;24.072;2022-09-03T03:06:41;10.55;;;6.55;;
35877;SDS011;21982;49.804;24.072;2022-09-03T03:09:06;8.77;;;5.82;;
35877;SDS011;21982;49.804;24.072;2022-09-03T03:11:32;12.52;;;7.22;;
35877;SDS011;21982;49.804;24.072;2022-09-03T03:13:59;9.65;;;5.97;;
35877;SDS011;21982;49.804;24.072;2022-09-03T03:16:24;10.65;;;5.93;;
35877;SDS011;21982;49.804;24.072;2022-09-03T03:18:50;10.57;;;6.50;;
35877;SDS011;21982;49.804;24.072;2022-09-03T03:21:17;10.85;;;5.72;;
35877;SDS011;21982;49.804;24.072;2022-09-03T03:23:43;10.60;;;6.47;;
35877;SDS011;21982;49.804;24.072;2022-09-03T03:26:10;10.55;;;6.65;;
35877;SDS011;21982;49.804;24.072;2022-09-03T03:28:41;10.70;;;6.80;;
35877;SDS011;21982;49.804;24.072;2022-09-03T03:31:08;10.15;;;5.75;;
35877;SDS011;21982;49.804;24.072;2022-09-03T03:33:39;10.65;;;6.00;;
35877;SDS011;21982;49.804;24.072;2022-09-03T03:36:09;12.27;;;6.07;;
35877;SDS011;21982;49.804;24.072;2022-09-03T03:38:37;12.60;;;6.63;;
35877;SDS011;21982;49.804;24.072;2022-09-03T03:41:23;13.02;;;6.72;;
35877;SDS011;21982;49.804;24.072;2022-09-03T03:43:54;9.65;;;6.47;;
35877;SDS011;21982;49.804;24.072;2022-09-03T03:46:22;11.68;;;7.13;;
35877;SDS011;21982;49.804;24.072;2022-09-03T03:48:49;9.45;;;5.95;;
35877;SDS011;21982;49.804;24.072;2022-09-03T03:51:16;11.57;;;6.38;;
35877;SDS011;21982;49.804;24.072;2022-09-03T03:53:42;12.23;;;6.72;;
35877;SDS011;21982;49.804;24.072;2022-09-03T03:56:09;13.55;;;7.28;;
35877;SDS011;21982;49.804;24.072;2022-09-03T03:58:37;12.30;;;6.80;;
35877;SDS011;21982;49.804;24.072;2022-09-03T04:03:36;11.07;;;6.50;;
35877;SDS011;21982;49.804;24.072;2022-09-03T04:06:02;12.90;;;6.13;;
35877;SDS011;21982;49.804;24.072;2022-09-03T04:08:33;10.35;;;6.35;;
35877;SDS011;21982;49.804;24.072;2022-09-03T04:11:00;10.32;;;7.03;;
35877;SDS011;21982;49.804;24.072;2022-09-03T04:13:30;11.30;;;6.30;;
35877;SDS011;21982;49.804;24.072;2022-09-03T04:16:02;10.27;;;6.05;;
35877;SDS011;21982;49.804;24.072;2022-09-03T04:18:29;11.57;;;6.18;;
35877;SDS011;21982;49.804;24.072;2022-09-03T04:20:59;12.18;;;6.63;;
35877;SDS011;21982;49.804;24.072;2022-09-03T04:23:36;9.40;;;6.35;;
35877;SDS011;21982;49.804;24.072;2022-09-03T04:26:06;10.93;;;7.88;;
35877;SDS011;21982;49.804;24.072;2022-09-03T04:28:35;9.77;;;5.70;;
35877;SDS011;21982;49.804;24.072;2022-09-03T04:31:05;8.90;;;5.50;;
35877;SDS011;21982;49.804;24.072;2022-09-03T04:33:33;8.88;;;5.65;;
35877;SDS011;21982;49.804;24.072;2022-09-03T04:36:02;11.48;;;7.43;;
35877;SDS011;21982;49.804;24.072;2022-09-03T04:38:29;10.68;;;7.18;;
35877;SDS011;21982;49.804;24.072;2022-09-03T04:40:56;10.27;;;6.40;;
35877;SDS011;21982;49.804;24.072;2022-09-03T04:43:26;10.63;;;6.20;;
35877;SDS011;21982;49.804;24.072;2022-09-03T04:45:59;9.90;;;6.72;;
35877;SDS011;21982;49.804;24.072;2022-09-03T04:48:26;12.73;;;6.90;;
35877;SDS011;21982;49.804;24.072;2022-09-03T04:50:53;10.38;;;6.50;;
35877;SDS011;21982;49.804;24.072;2022-09-03T04:53:20;11.98;;;7.03;;
35877;SDS011;21982;49.804;24.072;2022-09-03T04:55:46;11.18;;;7.43;;
35877;SDS011;21982;49.804;24.072;2022-09-03T04:58:12;12.27;;;6.95;;
35877;SDS011;21982;49.804;24.072;2022-09-03T05:00:38;13.10;;;7.40;;
35877;SDS011;21982;49.804;24.072;2022-09-03T05:03:03;11.52;;;7.35;;
35877;SDS011;21982;49.804;24.072;2022-09-03T05:05:30;10.60;;;6.07;;
35877;SDS011;21982;49.804;24.072;2022-09-03T05:07:57;10.15;;;6.93;;
35877;SDS011;21982;49.804;24.072;2022-09-03T05:10:25;10.82;;;6.75;;
35877;SDS011;21982;49.804;24.072;2022-09-03T05:13:01;12.30;;;6.55;;
35877;SDS011;21982;49.804;24.072;2022-09-03T05:15:31;12.77;;;6.32;;
35877;SDS011;21982;49.804;24.072;2022-09-03T05:18:00;12.20;;;7.30;;
35877;SDS011;21982;49.804;24.072;2022-09-03T05:20:27;11.68;;;5.97;;
35877;SDS011;21982;49.804;24.072;2022-09-03T05:22:54;11.80;;;6.22;;
35877;SDS011;21982;49.804;24.072;2022-09-03T05:25:20;10.90;;;6.78;;
35877;SDS011;21982;49.804;24.072;2022-09-03T05:27:47;10.70;;;5.55;;
35877;SDS011;21982;49.804;24.072;2022-09-03T05:30:14;9.93;;;6.13;;
35877;SDS011;21982;49.804;24.072;2022-09-03T05:32:40;11.43;;;5.45;;
35877;SDS011;21982;49.804;24.072;2022-09-03T05:35:09;9.98;;;6.53;;
35877;SDS011;21982;49.804;24.072;2022-09-03T05:37:35;11.43;;;7.28;;
35877;SDS011;21982;49.804;24.072;2022-09-03T05:40:01;11.90;;;5.80;;
35877;SDS011;21982;49.804;24.072;2022-09-03T05:42:28;13.05;;;5.75;;
35877;SDS011;21982;49.804;24.072;2022-09-03T05:44:56;9.75;;;5.80;;
35877;SDS011;21982;49.804;24.072;2022-09-03T05:47:22;11.55;;;7.07;;
35877;SDS011;21982;49.804;24.072;2022-09-03T05:49:52;10.15;;;6.53;;
35877;SDS011;21982;49.804;24.072;2022-09-03T05:52:21;10.77;;;6.55;;
35877;SDS011;21982;49.804;24.072;2022-09-03T05:54:47;10.65;;;6.78;;
35877;SDS011;21982;49.804;24.072;2022-09-03T05:57:13;10.60;;;5.70;;
35877;SDS011;21982;49.804;24.072;2022-09-03T05:59:39;10.68;;;6.13;;
35877;SDS011;21982;49.804;24.072;2022-09-03T06:02:08;10.20;;;6.88;;
35877;SDS011;21982;49.804;24.072;2022-09-03T06:04:33;12.32;;;7.03;;
35877;SDS011;21982;49.804;24.072;2022-09-03T06:06:59;9.80;;;6.43;;
35877;SDS011;21982;49.804;24.072;2022-09-03T06:09:24;11.25;;;7.35;;
35877;SDS011;21982;49.804;24.072;2022-09-03T06:11:50;9.35;;;6.07;;
35877;SDS011;21982;49.804;24.072;2022-09-03T06:14:18;12.25;;;5.97;;
35877;SDS011;21982;49.804;24.072;2022-09-03T06:16:56;9.23;;;6.05;;
35877;SDS011;21982;49.804;24.072;2022-09-03T06:19:22;11.23;;;6.50;;
35877;SDS011;21982;49.804;24.072;2022-09-03T06:21:47;15.70;;;7.45;;
35877;SDS011;21982;49.804;24.072;2022-09-03T06:24:19;11.48;;;6.47;;
35877;SDS011;21982;49.804;24.072;2022-09-03T06:26:48;10.75;;;5.90;;
35877;SDS011;21982;49.804;24.072;2022-09-03T06:29:20;9.57;;;6.00;;
35877;SDS011;21982;49.804;24.072;2022-09-03T06:31:46;12.32;;;7.22;;
35877;SDS011;21982;49.804;24.072;2022-09-03T06:34:15;9.65;;;6.03;;
35877;SDS011;21982;49.804;24.072;2022-09-03T06:36:42;12.65;;;7.13;;
35877;SDS011;21982;49.804;24.072;2022-09-03T06:39:11;9.30;;;5.65;;
35877;SDS011;21982;49.804;24.072;2022-09-03T06:41:39;8.05;;;5.50;;
35877;SDS011;21982;49.804;24.072;2022-09-03T06:44:07;9.52;;;5.53;;
35877;SDS011;21982;49.804;24.072;2022-09-03T06:46:38;10.93;;;6.57;;
35877;SDS011;21982;49.804;24.072;2022-09-03T06:49:12;11.25;;;6.45;;
35877;SDS011;21982;49.804;24.072;2022-09-03T06:51:44;10.05;;;5.75;;
35877;SDS011;21982;49.804;24.072;2022-09-03T06:54:10;8.43;;;5.32;;
35877;SDS011;21982;49.804;24.072;2022-09-03T06:56:38;10.65;;;6.18;;
35877;SDS011;21982;49.804;24.072;2022-09-03T06:59:09;12.52;;;6.20;;
35877;SDS011;21982;49.804;24.072;2022-09-03T07:01:36;12.05;;;7.57;;
35877;SDS011;21982;49.804;24.072;2022-09-03T07:04:05;8.45;;;5.68;;
35877;SDS011;21982;49.804;24.072;2022-09-03T07:06:35;12.02;;;5.60;;
35877;SDS011;21982;49.804;24.072;2022-09-03T07:09:03;10.02;;;6.53;;
35877;SDS011;21982;49.804;24.072;2022-09-03T07:11:29;9.18;;;6.03;;
35877;SDS011;21982;49.804;24.072;2022-09-03T07:13:58;8.70;;;6.57;;
35877;SDS011;21982;49.804;24.072;2022-09-03T07:19:00;9.43;;;5.90;;
35877;SDS011;21982;49.804;24.072;2022-09-03T07:21:29;10.27;;;5.35;;
35877;SDS011;21982;49.804;24.072;2022-09-03T07:23:57;10.30;;;6.53;;
35877;SDS011;21982;49.804;24.072;2022-09-03T07:26:31;8.55;;;5.13;;
35877;SDS011;21982;49.804;24.072;2022-09-03T07:31:28;12.65;;;6.20;;
35877;SDS011;21982;49.804;24.072;2022-09-03T07:34:11;10.40;;;6.07;;
35877;SDS011;21982;49.804;24.072;2022-09-03T07:36:45;10.35;;;6.05;;
35877;SDS011;21982;49.804;24.072;2022-09-03T07:39:21;11.60;;;6.57;;
35877;SDS011;21982;49.804;24.072;2022-09-03T07:41:47;9.63;;;6.10;;
35877;SDS011;21982;49.804;24.072;2022-09-03T07:44:13;9.77;;;6.22;;
35877;SDS011;21982;49.804;24.072;2022-09-03T07:46:43;11.65;;;7.18;;
35877;SDS011;21982;49.804;24.072;2022-09-03T07:49:14;10.15;;;7.15;;
35877;SDS011;21982;49.804;24.072;2022-09-03T07:51:40;10.88;;;7.57;;
35877;SDS011;21982;49.804;24.072;2022-09-03T07:54:08;9.75;;;6.03;;
35877;SDS011;21982;49.804;24.072;2022-09-03T07:56:35;9.10;;;6.20;;
35877;SDS011;21982;49.804;24.072;2022-09-03T07:59:08;13.00;;;6.75;;
35877;SDS011;21982;49.804;24.072;2022-09-03T08:01:43;10.38;;;6.15;;
35877;SDS011;21982;49.804;24.072;2022-09-03T08:04:17;10.40;;;5.78;;
35877;SDS011;21982;49.804;24.072;2022-09-03T08:06:50;9.70;;;6.53;;
35877;SDS011;21982;49.804;24.072;2022-09-03T08:09:19;8.63;;;5.80;;
35877;SDS011;21982;49.804;24.072;2022-09-03T08:11:44;9.13;;;5.97;;
35877;SDS011;21982;49.804;24.072;2022-09-03T08:14:10;8.50;;;5.55;;
35877;SDS011;21982;49.804;24.072;2022-09-03T08:16:43;7.20;;;4.60;;
35877;SDS011;21982;49.804;24.072;2022-09-03T08:19:13;7.38;;;4.10;;
35877;SDS011;21982;49.804;24.072;2022-09-03T08:21:39;8.05;;;4.53;;
35877;SDS011;21982;49.804;24.072;2022-09-03T08:24:08;7.95;;;4.10;;
35877;SDS011;21982;49.804;24.072;2022-09-03T08:26:36;8.32;;;4.35;;
35877;SDS011;21982;49.804;24.072;2022-09-03T08:29:05;9.45;;;4.13;;
35877;SDS011;21982;49.804;24.072;2022-09-03T08:31:31;8.07;;;4.43;;
35877;SDS011;21982;49.804;24.072;2022-09-03T08:33:58;7.60;;;4.25;;
35877;SDS011;21982;49.804;24.072;2022-09-03T08:36:30;8.50;;;4.70;;
35877;SDS011;21982;49.804;24.072;2022-09-03T08:39:01;8.27;;;4.07;;
35877;SDS011;21982;49.804;24.072;2022-09-03T08:49:17;7.40;;;3.40;;
35877;SDS011;21982;49.804;24.072;2022-09-03T08:51:47;8.55;;;4.78;;
35877;SDS011;21982;49.804;24.072;2022-09-03T08:54:16;9.50;;;4.22;;
35877;SDS011;21982;49.804;24.072;2022-09-03T08:56:43;7.40;;;3.75;;
35877;SDS011;21982;49.804;24.072;2022-09-03T08:59:10;7.57;;;3.97;;
35877;SDS011;21982;49.804;24.072;2022-09-03T09:20:17;7.05;;;4.47;;
35877;SDS011;21982;49.804;24.072;2022-09-03T09:22:54;9.02;;;4.25;;
35877;SDS011;21982;49.804;24.072;2022-09-03T09:25:27;5.60;;;3.80;;
35877;SDS011;21982;49.804;24.072;2022-09-03T09:28:02;8.02;;;3.83;;
35877;SDS011;21982;49.804;24.072;2022-09-03T09:30:37;7.85;;;4.40;;
35877;SDS011;21982;49.804;24.072;2022-09-03T09:33:02;8.38;;;4.63;;
35877;SDS011;21982;49.804;24.072;2022-09-03T09:35:28;8.13;;;4.47;;
35877;SDS011;21982;49.804;24.072;2022-09-03T09:37:54;7.38;;;4.07;;
35877;SDS011;21982;49.804;24.072;2022-09-03T09:40:25;9.90;;;4.63;;
35877;SDS011;21982;49.804;24.072;2022-09-03T09:43:01;8.77;;;4.30;;
35877;SDS011;21982;49.804;24.072;2022-09-03T09:45:30;7.05;;;4.13;;
35877;SDS011;21982;49.804;24.072;2022-09-03T09:47:59;7.32;;;4.00;;
35877;SDS011;21982;49.804;24.072;2022-09-03T09:50:27;6.60;;;3.80;;
35877;SDS011;21982;49.804;24.072;2022-09-03T09:53:00;7.25;;;4.65;;
35877;SDS011;21982;49.804;24.072;2022-09-03T09:55:29;7.65;;;4.32;;
35877;SDS011;21982;49.804;24.072;2022-09-03T09:58:08;8.77;;;4.68;;
35877;SDS011;21982;49.804;24.072;2022-09-03T10:00:35;8.07;;;3.80;;
35877;SDS011;21982;49.804;24.072;2022-09-03T10:03:06;7.03;;;4.00;;
35877;SDS011;21982;49.804;24.072;2022-09-03T10:05:35;6.75;;;4.10;;
35877;SDS011;21982;49.804;24.072;2022-09-03T10:08:17;7.97;;;4.53;;
35877;SDS011;21982;49.804;24.072;2022-09-03T10:10:46;6.97;;;3.83;;
35877;SDS011;21982;49.804;24.072;2022-09-03T10:13:20;7.75;;;4.45;;
35877;SDS011;21982;49.804;24.072;2022-09-03T10:15:54;7.90;;;4.70;;
35877;SDS011;21982;49.804;24.072;2022-09-03T10:18:50;9.45;;;4.57;;
35877;SDS011;21982;49.804;24.072;2022-09-03T10:27:05;8.15;;;4.07;;
35877;SDS011;21982;49.804;24.072;2022-09-03T10:29:33;8.50;;;4.15;;
35877;SDS011;21982;49.804;24.072;2022-09-03T10:48:09;6.05;;;3.28;;
35877;SDS011;21982;49.804;24.072;2022-09-03T11:04:27;5.53;;;2.95;;
35877;SDS011;21982;49.804;24.072;2022-09-03T11:06:56;7.15;;;3.58;;
35877;SDS011;21982;49.804;24.072;2022-09-03T11:09:29;5.13;;;3.15;;
35877;SDS011;21982;49.804;24.072;2022-09-03T11:11:57;6.25;;;3.17;;
35877;SDS011;21982;49.804;24.072;2022-09-03T11:14:39;6.72;;;3.70;;
35877;SDS011;21982;49.804;24.072;2022-09-03T11:17:21;5.30;;;3.22;;
35877;SDS011;21982;49.804;24.072;2022-09-03T11:19:54;4.68;;;2.58;;
35877;SDS011;21982;49.804;24.072;2022-09-03T11:22:28;7.25;;;3.08;;
35877;SDS011;21982;49.804;24.072;2022-09-03T11:24:55;5.32;;;2.95;;
35877;SDS011;21982;49.804;24.072;2022-09-03T11:30:05;5.53;;;2.72;;
35877;SDS011;21982;49.804;24.072;2022-09-03T11:35:36;6.10;;;3.17;;
35877;SDS011;21982;49.804;24.072;2022-09-03T11:43:38;6.05;;;2.25;;
35877;SDS011;21982;49.804;24.072;2022-09-03T11:46:06;4.68;;;2.45;;
35877;SDS011;21982;49.804;24.072;2022-09-03T11:56:19;7.50;;;3.03;;
35877;SDS011;21982;49.804;24.072;2022-09-03T11:58:45;3.63;;;2.22;;
35877;SDS011;21982;49.804;24.072;2022-09-03T12:07:29;6.72;;;3.30;;
35877;SDS011;21982;49.804;24.072;2022-09-03T12:10:06;3.63;;;2.40;;
35877;SDS011;21982;49.804;24.072;2022-09-03T12:12:39;6.18;;;3.00;;
35877;SDS011;21982;49.804;24.072;2022-09-03T12:21:15;5.55;;;2.58;;
35877;SDS011;21982;49.804;24.072;2022-09-03T12:26:11;4.65;;;2.50;;
35877;SDS011;21982;49.804;24.072;2022-09-03T12:28:41;4.93;;;2.63;;
35877;SDS011;21982;49.804;24.072;2022-09-03T12:31:14;5.45;;;2.30;;
35877;SDS011;21982;49.804;24.072;2022-09-03T12:36:22;4.20;;;2.42;;
35877;SDS011;21982;49.804;24.072;2022-09-03T12:38:48;4.40;;;2.42;;
35877;SDS011;21982;49.804;24.072;2022-09-03T12:41:24;3.40;;;2.45;;
35877;SDS011;21982;49.804;24.072;2022-09-03T12:43:53;5.95;;;3.30;;
35877;SDS011;21982;49.804;24.072;2022-09-03T12:46:23;4.18;;;2.50;;
35877;SDS011;21982;49.804;24.072;2022-09-03T12:48:54;6.38;;;2.35;;
35877;SDS011;21982;49.804;24.072;2022-09-03T12:51:21;4.55;;;2.25;;
35877;SDS011;21982;49.804;24.072;2022-09-03T12:53:50;4.05;;;2.30;;
35877;SDS011;21982;49.804;24.072;2022-09-03T12:56:17;5.63;;;2.63;;
35877;SDS011;21982;49.804;24.072;2022-09-03T12:58:51;6.88;;;2.50;;
35877;SDS011;21982;49.804;24.072;2022-09-03T13:01:26;5.82;;;3.08;;
35877;SDS011;21982;49.804;24.072;2022-09-03T13:04:02;4.57;;;2.45;;
35877;SDS011;21982;49.804;24.072;2022-09-03T13:09:24;4.30;;;3.08;;
35877;SDS011;21982;49.804;24.072;2022-09-03T13:11:53;4.65;;;2.80;;
35877;SDS011;21982;49.804;24.072;2022-09-03T13:14:23;8.07;;;2.38;;
35877;SDS011;21982;49.804;24.072;2022-09-03T13:19:50;3.05;;;1.85;;
35877;SDS011;21982;49.804;24.072;2022-09-03T13:28:39;3.83;;;2.00;;
35877;SDS011;21982;49.804;24.072;2022-09-03T13:34:25;3.90;;;1.52;;
35877;SDS011;21982;49.804;24.072;2022-09-03T13:37:10;5.13;;;1.95;;
35877;SDS011;21982;49.804;24.072;2022-09-03T13:39:51;2.63;;;1.30;;
35877;SDS011;21982;49.804;24.072;2022-09-03T13:42:25;2.30;;;1.30;;
35877;SDS011;21982;49.804;24.072;2022-09-03T13:47:45;4.30;;;1.85;;
35877;SDS011;21982;49.804;24.072;2022-09-03T13:50:57;3.88;;;1.80;;
35877;SDS011;21982;49.804;24.072;2022-09-03T13:59:06;4.45;;;2.60;;
35877;SDS011;21982;49.804;24.072;2022-09-03T14:01:59;3.55;;;1.60;;
35877;SDS011;21982;49.804;24.072;2022-09-03T14:07:53;4.55;;;1.50;;
35877;SDS011;21982;49.804;24.072;2022-09-03T14:10:36;3.42;;;1.52;;
35877;SDS011;21982;49.804;24.072;2022-09-03T14:16:04;5.55;;;1.63;;
35877;SDS011;21982;49.804;24.072;2022-09-03T14:18:55;2.75;;;1.50;;
35877;SDS011;21982;49.804;24.072;2022-09-03T14:21:34;1.60;;;1.30;;
35877;SDS011;21982;49.804;24.072;2022-09-03T14:24:14;2.25;;;1.27;;
35877;SDS011;21982;49.804;24.072;2022-09-03T14:27:04;2.75;;;1.40;;
35877;SDS011;21982;49.804;24.072;2022-09-03T14:29:32;2.00;;;1.30;;
35877;SDS011;21982;49.804;24.072;2022-09-03T14:46:00;3.30;;;1.73;;
35877;SDS011;21982;49.804;24.072;2022-09-03T15:00:28;4.40;;;2.30;;
35877;SDS011;21982;49.804;24.072;2022-09-03T15:05:05;2.88;;;1.75;;
35877;SDS011;21982;49.804;24.072;2022-09-03T15:13:20;4.13;;;2.10;;
35877;SDS011;21982;49.804;24.072;2022-09-03T15:21:22;4.70;;;2.72;;
35877;SDS011;21982;49.804;24.072;2022-09-03T15:26:56;4.30;;;2.45;;
35877;SDS011;21982;49.804;24.072;2022-09-03T15:29:53;4.35;;;2.42;;
35877;SDS011;21982;49.804;24.072;2022-09-03T15:32:43;3.25;;;2.15;;
35877;SDS011;21982;49.804;24.072;2022-09-03T15:38:46;7.30;;;2.45;;
35877;SDS011;21982;49.804;24.072;2022-09-03T15:41:49;3.08;;;1.90;;
35877;SDS011;21982;49.804;24.072;2022-09-03T15:44:28;1.85;;;1.30;;
35877;SDS011;21982;49.804;24.072;2022-09-03T15:47:27;3.60;;;1.92;;
35877;SDS011;21982;49.804;24.072;2022-09-03T15:50:16;5.43;;;2.50;;
35877;SDS011;21982;49.804;24.072;2022-09-03T15:53:05;3.80;;;1.70;;
35877;SDS011;21982;49.804;24.072;2022-09-03T15:55:38;3.63;;;2.10;;
35877;SDS011;21982;49.804;24.072;2022-09-03T16:00:55;5.38;;;2.42;;
35877;SDS011;21982;49.804;24.072;2022-09-03T16:08:54;5.57;;;1.92;;
35877;SDS011;21982;49.804;24.072;2022-09-03T16:11:30;2.72;;;1.80;;
35877;SDS011;21982;49.804;24.072;2022-09-03T16:14:17;6.15;;;2.17;;
35877;SDS011;21982;49.804;24.072;2022-09-03T16:22:26;2.17;;;1.60;;
35877;SDS011;21982;49.804;24.072;2022-09-03T16:25:01;2.97;;;1.70;;
35877;SDS011;21982;49.804;24.072;2022-09-03T16:30:09;3.38;;;1.75;;
35877;SDS011;21982;49.804;24.072;2022-09-03T16:40:48;13.40;;;7.15;;
35877;SDS011;21982;49.804;24.072;2022-09-03T16:46:12;9.15;;;4.05;;
35877;SDS011;21982;49.804;24.072;2022-09-03T16:51:21;4.50;;;2.75;;
35877;SDS011;21982;49.804;24.072;2022-09-03T17:05:06;14.02;;;6.70;;
35877;SDS011;21982;49.804;24.072;2022-09-03T17:22:19;4.20;;;2.88;;
35877;SDS011;21982;49.804;24.072;2022-09-03T17:25:33;4.30;;;2.40;;
35877;SDS011;21982;49.804;24.072;2022-09-03T17:28:19;6.78;;;2.22;;
35877;SDS011;21982;49.804;24.072;2022-09-03T17:31:26;5.53;;;2.78;;
35877;SDS011;21982;49.804;24.072;2022-09-03T17:34:01;3.47;;;1.90;;
35877;SDS011;21982;49.804;24.072;2022-09-03T17:36:30;4.38;;;2.28;;
35877;SDS011;21982;49.804;24.072;2022-09-03T17:42:03;4.82;;;1.98;;
35877;SDS011;21982;49.804;24.072;2022-09-03T17:47:30;5.45;;;2.50;;
35877;SDS011;21982;49.804;24.072;2022-09-03T17:50:17;6.47;;;3.08;;
35877;SDS011;21982;49.804;24.072;2022-09-03T17:55:43;5.72;;;2.40;;
35877;SDS011;21982;49.804;24.072;2022-09-03T17:58:30;5.40;;;3.30;;
35877;SDS011;21982;49.804;24.072;2022-09-03T18:03:52;5.17;;;2.93;;
35877;SDS011;21982;49.804;24.072;2022-09-03T18:06:22;6.78;;;2.70;;
35877;SDS011;21982;49.804;24.072;2022-09-03T18:17:01;6.22;;;3.55;;
35877;SDS011;21982;49.804;24.072;2022-09-03T18:19:41;7.25;;;3.58;;
35877;SDS011;21982;49.804;24.072;2022-09-03T18:26:21;7.35;;;3.00;;
35877;SDS011;21982;49.804;24.072;2022-09-03T18:29:31;4.20;;;2.95;;
35877;SDS011;21982;49.804;24.072;2022-09-03T18:32:37;5.78;;;3.60;;
35877;SDS011;21982;49.804;24.072;2022-09-03T18:35:22;7.15;;;3.80;;
35877;SDS011;21982;49.804;24.072;2022-09-03T18:38:10;6.90;;;3.92;;
35877;SDS011;21982;49.804;24.072;2022-09-03T18:40:58;7.93;;;3.50;;
35877;SDS011;21982;49.804;24.072;2022-09-03T18:46:53;5.38;;;2.97;;
35877;SDS011;21982;49.804;24.072;2022-09-03T18:49:41;6.22;;;3.20;;
35877;SDS011;21982;49.804;24.072;2022-09-03T18:52:43;8.15;;;3.60;;
35877;SDS011;21982;49.804;24.072;2022-09-03T18:55:37;5.55;;;3.15;;
35877;SDS011;21982;49.804;24.072;2022-09-03T19:02:01;5.05;;;3.15;;
35877;SDS011;21982;49.804;24.072;2022-09-03T19:11:08;8.13;;;4.00;;
35877;SDS011;21982;49.804;24.072;2022-09-03T19:14:01;6.13;;;3.80;;
35877;SDS011;21982;49.804;24.072;2022-09-03T19:17:04;6.53;;;3.20;;
35877;SDS011;21982;49.804;24.072;2022-09-03T19:20:30;6.85;;;3.55;;
35877;SDS011;21982;49.804;24.072;2022-09-03T19:23:17;7.20;;;3.35;;
35877;SDS011;21982;49.804;24.072;2022-09-03T19:26:10;8.85;;;4.07;;
35877;SDS011;21982;49.804;24.072;2022-09-03T19:32:32;9.50;;;3.78;;
35877;SDS011;21982;49.804;24.072;2022-09-03T19:35:40;6.63;;;3.65;;
35877;SDS011;21982;49.804;24.072;2022-09-03T19:38:47;10.85;;;5.53;;
35877;SDS011;21982;49.804;24.072;2022-09-03T19:41:50;9.40;;;3.45;;
35877;SDS011;21982;49.804;24.072;2022-09-03T19:48:02;9.52;;;4.57;;
35877;SDS011;21982;49.804;24.072;2022-09-03T19:53:53;7.68;;;3.80;;
35877;SDS011;21982;49.804;24.072;2022-09-03T19:56:40;6.78;;;3.50;;
35877;SDS011;21982;49.804;24.072;2022-09-03T19:59:33;8.45;;;3.97;;
35877;SDS011;21982;49.804;24.072;2022-09-03T20:02:22;8.25;;;4.00;;
35877;SDS011;21982;49.804;24.072;2022-09-03T20:05:09;10.80;;;5.50;;
35877;SDS011;21982;49.804;24.072;2022-09-03T20:07:58;10.35;;;6.10;;
35877;SDS011;21982;49.804;24.072;2022-09-03T20:10:42;10.15;;;6.00;;
35877;SDS011;21982;49.804;24.072;2022-09-03T20:13:16;10.60;;;7.80;;
35877;SDS011;21982;49.804;24.072;2022-09-03T20:21:37;13.25;;;8.80;;
35877;SDS011;21982;49.804;24.072;2022-09-03T20:30:49;11.75;;;7.13;;
35877;SDS011;21982;49.804;24.072;2022-09-03T20:33:45;9.95;;;6.82;;
35877;SDS011;21982;49.804;24.072;2022-09-03T20:44:42;8.70;;;4.75;;
35877;SDS011;21982;49.804;24.072;2022-09-03T20:47:34;9.60;;;5.22;;
35877;SDS011;21982;49.804;24.072;2022-09-03T20:50:30;10.15;;;5.18;;
35877;SDS011;21982;49.804;24.072;2022-09-03T20:53:21;8.02;;;4.70;;
35877;SDS011;21982;49.804;24.072;2022-09-03T20:56:11;8.70;;;4.38;;
35877;SDS011;21982;49.804;24.072;2022-09-03T20:59:02;8.23;;;3.97;;
35877;SDS011;21982;49.804;24.072;2022-09-03T21:01:56;8.25;;;5.32;;
35877;SDS011;21982;49.804;24.072;2022-09-03T21:07:04;11.75;;;4.15;;